sensor_id;sensor_type;location;lat;lon;timestamp;P1;durP1;ratioP1;P2;durP2;ratioP2
12768;SDS011;6448;48.916;8.990;2022-08-04T00:00:13;1.40;;;1.30;;
12768;SDS011;6448;48.916;8.990;2022-08-04T00:01:17;1.65;;;1.30;;
12768;SDS011;6448;48.916;8.990;2022-08-04T00:02:23;1.70;;;1.50;;
12768;SDS011;6448;48.916;8.990;2022-08-04T00:03:27;1.65;;;1.40;;
12768;SDS011;6448;48.916;8.990;2022-08-04T00:04:44;1.40;;;1.30;;
12768;SDS011;6448;48.916;8.990;2022-08-04T00:05:53;1.50;;;1.30;;
12768;SDS011;6448;48.916;8.990;2022-08-04T00:07:01;1.70;;;1.30;;
12768;SDS011;6448;48.916;8.990;2022-08-04T00:08:10;1.48;;;1.38;;
12768;SDS011;6448;48.916;8.990;2022-08-04T00:09:36;1.60;;;1.30;;
12768;SDS011;6448;48.916;8.990;2022-08-04T00:10:43;1.40;;;1.30;;
12768;SDS011;6448;48.916;8.990;2022-08-04T00:11:48;1.40;;;1.30;;
12768;SDS011;6448;48.916;8.990;2022-08-04T00:12:54;1.50;;;1.40;;
12768;SDS011;6448;48.916;8.990;2022-08-04T00:14:00;1.40;;;1.30;;
12768;SDS011;6448;48.916;8.990;2022-08-04T00:15:04;1.50;;;1.40;;
12768;SDS011;6448;48.916;8.990;2022-08-04T00:16:09;1.40;;;1.30;;
12768;SDS011;6448;48.916;8.990;2022-08-04T00:17:13;1.40;;;1.30;;
12768;SDS011;6448;48.916;8.990;2022-08-04T00:18:15;1.42;;;1.33;;
12768;SDS011;6448;48.916;8.990;2022-08-04T00:19:24;1.30;;;1.20;;
12768;SDS011;6448;48.916;8.990;2022-08-04T00:20:32;1.50;;;1.40;;
12768;SDS011;6448;48.916;8.990;2022-08-04T00:21:35;1.55;;;1.45;;
12768;SDS011;6448;48.916;8.990;2022-08-04T00:22:41;1.65;;;1.40;;
12768;SDS011;6448;48.916;8.990;2022-08-04T00:23:46;1.30;;;1.20;;
12768;SDS011;6448;48.916;8.990;2022-08-04T00:24:48;1.80;;;1.30;;
12768;SDS011;6448;48.916;8.990;2022-08-04T00:25:50;1.20;;;1.10;;
12768;SDS011;6448;48.916;8.990;2022-08-04T00:26:52;1.40;;;1.30;;
12768;SDS011;6448;48.916;8.990;2022-08-04T00:27:54;1.40;;;1.30;;
12768;SDS011;6448;48.916;8.990;2022-08-04T00:28:55;1.40;;;1.30;;
12768;SDS011;6448;48.916;8.990;2022-08-04T00:29:58;1.48;;;1.38;;
12768;SDS011;6448;48.916;8.990;2022-08-04T00:30:59;1.40;;;1.30;;
12768;SDS011;6448;48.916;8.990;2022-08-04T00:32:01;1.83;;;1.40;;
12768;SDS011;6448;48.916;8.990;2022-08-04T00:33:02;1.15;;;1.15;;
12768;SDS011;6448;48.916;8.990;2022-08-04T00:34:04;1.40;;;1.30;;
12768;SDS011;6448;48.916;8.990;2022-08-04T00:35:05;1.63;;;1.52;;
12768;SDS011;6448;48.916;8.990;2022-08-04T00:36:09;1.35;;;1.25;;
12768;SDS011;6448;48.916;8.990;2022-08-04T00:37:10;1.40;;;1.30;;
12768;SDS011;6448;48.916;8.990;2022-08-04T00:38:14;1.42;;;1.33;;
12768;SDS011;6448;48.916;8.990;2022-08-04T00:39:16;1.48;;;1.38;;
12768;SDS011;6448;48.916;8.990;2022-08-04T00:40:23;1.40;;;1.30;;
12768;SDS011;6448;48.916;8.990;2022-08-04T00:41:29;1.60;;;1.30;;
12768;SDS011;6448;48.916;8.990;2022-08-04T00:42:43;1.53;;;1.43;;
12768;SDS011;6448;48.916;8.990;2022-08-04T00:43:50;1.88;;;1.30;;
12768;SDS011;6448;48.916;8.990;2022-08-04T00:45:06;1.30;;;1.20;;
12768;SDS011;6448;48.916;8.990;2022-08-04T00:46:25;1.40;;;1.30;;
12768;SDS011;6448;48.916;8.990;2022-08-04T00:47:43;1.60;;;1.20;;
12768;SDS011;6448;48.916;8.990;2022-08-04T00:49:02;1.33;;;1.23;;
12768;SDS011;6448;48.916;8.990;2022-08-04T00:50:20;1.40;;;1.30;;
12768;SDS011;6448;48.916;8.990;2022-08-04T00:51:26;1.35;;;1.25;;
12768;SDS011;6448;48.916;8.990;2022-08-04T00:52:35;1.30;;;1.20;;
12768;SDS011;6448;48.916;8.990;2022-08-04T00:53:46;1.40;;;1.30;;
12768;SDS011;6448;48.916;8.990;2022-08-04T00:55:04;1.67;;;1.50;;
12768;SDS011;6448;48.916;8.990;2022-08-04T00:56:26;1.50;;;1.40;;
12768;SDS011;6448;48.916;8.990;2022-08-04T00:57:47;1.45;;;1.35;;
12768;SDS011;6448;48.916;8.990;2022-08-04T00:58:58;1.48;;;1.38;;
12768;SDS011;6448;48.916;8.990;2022-08-04T01:00:09;1.60;;;1.50;;
12768;SDS011;6448;48.916;8.990;2022-08-04T01:01:13;1.50;;;1.40;;
12768;SDS011;6448;48.916;8.990;2022-08-04T01:02:34;1.70;;;1.60;;
12768;SDS011;6448;48.916;8.990;2022-08-04T01:03:49;1.50;;;1.40;;
12768;SDS011;6448;48.916;8.990;2022-08-04T01:05:01;1.60;;;1.50;;
12768;SDS011;6448;48.916;8.990;2022-08-04T01:06:05;1.40;;;1.30;;
12768;SDS011;6448;48.916;8.990;2022-08-04T01:07:26;1.67;;;1.58;;
12768;SDS011;6448;48.916;8.990;2022-08-04T01:08:48;1.80;;;1.70;;
12768;SDS011;6448;48.916;8.990;2022-08-04T01:09:56;1.80;;;1.40;;
12768;SDS011;6448;48.916;8.990;2022-08-04T01:11:03;1.27;;;1.10;;
12768;SDS011;6448;48.916;8.990;2022-08-04T01:12:18;1.80;;;1.70;;
12768;SDS011;6448;48.916;8.990;2022-08-04T01:13:35;1.70;;;1.60;;
12768;SDS011;6448;48.916;8.990;2022-08-04T01:15:03;1.60;;;1.50;;
12768;SDS011;6448;48.916;8.990;2022-08-04T01:16:07;1.90;;;1.52;;
12768;SDS011;6448;48.916;8.990;2022-08-04T01:17:14;1.50;;;1.40;;
12768;SDS011;6448;48.916;8.990;2022-08-04T01:18:21;2.40;;;1.70;;
12768;SDS011;6448;48.916;8.990;2022-08-04T01:19:37;1.60;;;1.50;;
12768;SDS011;6448;48.916;8.990;2022-08-04T01:20:54;1.73;;;1.63;;
12768;SDS011;6448;48.916;8.990;2022-08-04T01:22:16;1.50;;;1.30;;
12768;SDS011;6448;48.916;8.990;2022-08-04T01:23:36;2.00;;;1.50;;
12768;SDS011;6448;48.916;8.990;2022-08-04T01:27:32;1.70;;;1.60;;
12768;SDS011;6448;48.916;8.990;2022-08-04T01:30:11;3.33;;;1.80;;
12768;SDS011;6448;48.916;8.990;2022-08-04T01:31:15;1.60;;;1.50;;
12768;SDS011;6448;48.916;8.990;2022-08-04T01:32:31;1.52;;;1.42;;
12768;SDS011;6448;48.916;8.990;2022-08-04T01:33:36;1.40;;;1.30;;
12768;SDS011;6448;48.916;8.990;2022-08-04T01:34:40;1.65;;;1.55;;
12768;SDS011;6448;48.916;8.990;2022-08-04T01:35:46;1.70;;;1.60;;
12768;SDS011;6448;48.916;8.990;2022-08-04T01:36:54;1.70;;;1.60;;
12768;SDS011;6448;48.916;8.990;2022-08-04T01:38:06;2.55;;;1.60;;
12768;SDS011;6448;48.916;8.990;2022-08-04T01:39:15;1.70;;;1.60;;
12768;SDS011;6448;48.916;8.990;2022-08-04T01:40:37;1.73;;;1.55;;
12768;SDS011;6448;48.916;8.990;2022-08-04T01:41:41;1.98;;;1.80;;
12768;SDS011;6448;48.916;8.990;2022-08-04T01:42:42;1.70;;;1.60;;
12768;SDS011;6448;48.916;8.990;2022-08-04T01:43:45;1.60;;;1.50;;
12768;SDS011;6448;48.916;8.990;2022-08-04T01:44:48;1.65;;;1.55;;
12768;SDS011;6448;48.916;8.990;2022-08-04T01:45:59;1.67;;;1.58;;
12768;SDS011;6448;48.916;8.990;2022-08-04T01:47:01;1.70;;;1.60;;
12768;SDS011;6448;48.916;8.990;2022-08-04T01:48:03;1.75;;;1.65;;
12768;SDS011;6448;48.916;8.990;2022-08-04T01:49:07;1.70;;;1.60;;
12768;SDS011;6448;48.916;8.990;2022-08-04T01:50:10;1.75;;;1.65;;
12768;SDS011;6448;48.916;8.990;2022-08-04T01:51:13;1.88;;;1.70;;
12768;SDS011;6448;48.916;8.990;2022-08-04T01:52:15;1.73;;;1.63;;
12768;SDS011;6448;48.916;8.990;2022-08-04T01:53:18;1.75;;;1.60;;
12768;SDS011;6448;48.916;8.990;2022-08-04T01:54:20;1.77;;;1.63;;
12768;SDS011;6448;48.916;8.990;2022-08-04T01:55:22;1.90;;;1.70;;
12768;SDS011;6448;48.916;8.990;2022-08-04T01:56:25;1.80;;;1.70;;
12768;SDS011;6448;48.916;8.990;2022-08-04T01:57:29;3.33;;;1.77;;
12768;SDS011;6448;48.916;8.990;2022-08-04T01:58:34;1.60;;;1.50;;
12768;SDS011;6448;48.916;8.990;2022-08-04T01:59:36;1.70;;;1.60;;
12768;SDS011;6448;48.916;8.990;2022-08-04T02:00:40;2.40;;;1.42;;
12768;SDS011;6448;48.916;8.990;2022-08-04T02:01:49;1.67;;;1.58;;
12768;SDS011;6448;48.916;8.990;2022-08-04T02:02:52;1.88;;;1.50;;
12768;SDS011;6448;48.916;8.990;2022-08-04T02:03:54;1.83;;;1.73;;
12768;SDS011;6448;48.916;8.990;2022-08-04T02:04:55;1.80;;;1.70;;
12768;SDS011;6448;48.916;8.990;2022-08-04T02:06:00;1.75;;;1.65;;
12768;SDS011;6448;48.916;8.990;2022-08-04T02:07:14;1.60;;;1.50;;
12768;SDS011;6448;48.916;8.990;2022-08-04T02:08:26;1.70;;;1.60;;
12768;SDS011;6448;48.916;8.990;2022-08-04T02:09:37;2.00;;;1.70;;
12768;SDS011;6448;48.916;8.990;2022-08-04T02:10:50;1.80;;;1.60;;
12768;SDS011;6448;48.916;8.990;2022-08-04T02:12:01;1.67;;;1.50;;
12768;SDS011;6448;48.916;8.990;2022-08-04T02:13:09;1.67;;;1.58;;
12768;SDS011;6448;48.916;8.990;2022-08-04T02:14:17;1.70;;;1.60;;
12768;SDS011;6448;48.916;8.990;2022-08-04T02:15:43;1.75;;;1.60;;
12768;SDS011;6448;48.916;8.990;2022-08-04T02:16:53;1.90;;;1.70;;
12768;SDS011;6448;48.916;8.990;2022-08-04T02:17:58;1.70;;;1.60;;
12768;SDS011;6448;48.916;8.990;2022-08-04T02:19:03;1.92;;;1.60;;
12768;SDS011;6448;48.916;8.990;2022-08-04T02:20:15;1.65;;;1.55;;
12768;SDS011;6448;48.916;8.990;2022-08-04T02:21:23;1.70;;;1.60;;
12768;SDS011;6448;48.916;8.990;2022-08-04T02:22:26;1.67;;;1.52;;
12768;SDS011;6448;48.916;8.990;2022-08-04T02:23:30;1.60;;;1.50;;
12768;SDS011;6448;48.916;8.990;2022-08-04T02:24:39;1.60;;;1.50;;
12768;SDS011;6448;48.916;8.990;2022-08-04T02:25:45;2.15;;;1.60;;
12768;SDS011;6448;48.916;8.990;2022-08-04T02:26:49;1.47;;;1.37;;
12768;SDS011;6448;48.916;8.990;2022-08-04T02:27:58;1.60;;;1.50;;
12768;SDS011;6448;48.916;8.990;2022-08-04T02:29:14;1.50;;;1.40;;
12768;SDS011;6448;48.916;8.990;2022-08-04T02:30:20;1.50;;;1.40;;
12768;SDS011;6448;48.916;8.990;2022-08-04T02:31:29;1.58;;;1.48;;
12768;SDS011;6448;48.916;8.990;2022-08-04T02:32:32;1.53;;;1.40;;
12768;SDS011;6448;48.916;8.990;2022-08-04T02:33:39;1.83;;;1.40;;
12768;SDS011;6448;48.916;8.990;2022-08-04T02:34:44;1.55;;;1.45;;
12768;SDS011;6448;48.916;8.990;2022-08-04T02:35:55;1.40;;;1.30;;
12768;SDS011;6448;48.916;8.990;2022-08-04T02:37:00;1.40;;;1.30;;
12768;SDS011;6448;48.916;8.990;2022-08-04T02:38:15;1.40;;;1.30;;
12768;SDS011;6448;48.916;8.990;2022-08-04T02:39:22;1.40;;;1.30;;
12768;SDS011;6448;48.916;8.990;2022-08-04T02:40:24;1.42;;;1.33;;
12768;SDS011;6448;48.916;8.990;2022-08-04T02:41:29;1.40;;;1.30;;
12768;SDS011;6448;48.916;8.990;2022-08-04T02:42:32;1.20;;;1.10;;
12768;SDS011;6448;48.916;8.990;2022-08-04T02:43:33;1.80;;;1.25;;
12768;SDS011;6448;48.916;8.990;2022-08-04T02:44:36;1.45;;;1.20;;
12768;SDS011;6448;48.916;8.990;2022-08-04T02:45:39;1.23;;;1.13;;
12768;SDS011;6448;48.916;8.990;2022-08-04T02:46:43;1.13;;;1.10;;
12768;SDS011;6448;48.916;8.990;2022-08-04T02:47:47;1.30;;;1.20;;
12768;SDS011;6448;48.916;8.990;2022-08-04T02:48:51;1.38;;;1.27;;
12768;SDS011;6448;48.916;8.990;2022-08-04T02:49:53;1.30;;;1.20;;
12768;SDS011;6448;48.916;8.990;2022-08-04T02:50:57;1.27;;;1.17;;
12768;SDS011;6448;48.916;8.990;2022-08-04T02:52:05;1.30;;;1.20;;
12768;SDS011;6448;48.916;8.990;2022-08-04T02:53:10;1.97;;;1.23;;
12768;SDS011;6448;48.916;8.990;2022-08-04T02:54:15;1.75;;;1.20;;
12768;SDS011;6448;48.916;8.990;2022-08-04T02:55:19;1.30;;;1.20;;
12768;SDS011;6448;48.916;8.990;2022-08-04T02:56:20;2.40;;;1.30;;
12768;SDS011;6448;48.916;8.990;2022-08-04T02:57:25;1.30;;;1.20;;
12768;SDS011;6448;48.916;8.990;2022-08-04T02:58:29;1.40;;;1.30;;
12768;SDS011;6448;48.916;8.990;2022-08-04T02:59:37;1.30;;;1.20;;
12768;SDS011;6448;48.916;8.990;2022-08-04T03:00:48;1.30;;;1.20;;
12768;SDS011;6448;48.916;8.990;2022-08-04T03:01:52;1.20;;;1.10;;
12768;SDS011;6448;48.916;8.990;2022-08-04T03:03:01;1.55;;;1.20;;
12768;SDS011;6448;48.916;8.990;2022-08-04T03:04:14;1.40;;;1.30;;
12768;SDS011;6448;48.916;8.990;2022-08-04T03:05:38;1.10;;;1.10;;
12768;SDS011;6448;48.916;8.990;2022-08-04T03:06:58;1.30;;;1.20;;
12768;SDS011;6448;48.916;8.990;2022-08-04T03:08:43;2.17;;;1.30;;
12768;SDS011;6448;48.916;8.990;2022-08-04T03:11:46;1.27;;;1.17;;
12768;SDS011;6448;48.916;8.990;2022-08-04T03:13:08;1.50;;;1.20;;
12768;SDS011;6448;48.916;8.990;2022-08-04T03:14:41;1.50;;;1.40;;
12768;SDS011;6448;48.916;8.990;2022-08-04T03:16:05;1.30;;;1.20;;
12768;SDS011;6448;48.916;8.990;2022-08-04T03:17:43;1.35;;;1.25;;
12768;SDS011;6448;48.916;8.990;2022-08-04T03:19:36;1.60;;;1.35;;
12768;SDS011;6448;48.916;8.990;2022-08-04T03:22:29;1.30;;;1.20;;
12768;SDS011;6448;48.916;8.990;2022-08-04T03:23:58;1.20;;;1.10;;
12768;SDS011;6448;48.916;8.990;2022-08-04T03:25:40;1.60;;;1.30;;
12768;SDS011;6448;48.916;8.990;2022-08-04T03:27:08;1.35;;;1.25;;
12768;SDS011;6448;48.916;8.990;2022-08-04T03:28:17;1.20;;;1.10;;
12768;SDS011;6448;48.916;8.990;2022-08-04T03:33:01;1.30;;;1.20;;
12768;SDS011;6448;48.916;8.990;2022-08-04T03:34:22;1.20;;;1.10;;
12768;SDS011;6448;48.916;8.990;2022-08-04T03:37:10;1.50;;;1.40;;
12768;SDS011;6448;48.916;8.990;2022-08-04T03:38:30;1.75;;;1.65;;
12768;SDS011;6448;48.916;8.990;2022-08-04T03:40:08;1.65;;;1.55;;
12768;SDS011;6448;48.916;8.990;2022-08-04T03:41:38;1.90;;;1.80;;
12768;SDS011;6448;48.916;8.990;2022-08-04T03:46:30;1.90;;;1.80;;
12768;SDS011;6448;48.916;8.990;2022-08-04T03:47:59;1.70;;;1.60;;
12768;SDS011;6448;48.916;8.990;2022-08-04T03:49:47;1.40;;;1.30;;
12768;SDS011;6448;48.916;8.990;2022-08-04T03:51:26;1.30;;;1.20;;
12768;SDS011;6448;48.916;8.990;2022-08-04T03:53:02;1.63;;;1.20;;
12768;SDS011;6448;48.916;8.990;2022-08-04T03:54:32;1.20;;;1.10;;
12768;SDS011;6448;48.916;8.990;2022-08-04T03:55:57;1.60;;;1.35;;
12768;SDS011;6448;48.916;8.990;2022-08-04T03:57:24;1.30;;;1.20;;
12768;SDS011;6448;48.916;8.990;2022-08-04T03:59:02;1.40;;;1.30;;
12768;SDS011;6448;48.916;8.990;2022-08-04T04:00:18;1.30;;;1.20;;
12768;SDS011;6448;48.916;8.990;2022-08-04T04:01:36;1.30;;;1.20;;
12768;SDS011;6448;48.916;8.990;2022-08-04T04:03:10;1.30;;;1.20;;
12768;SDS011;6448;48.916;8.990;2022-08-04T04:04:35;1.40;;;1.30;;
12768;SDS011;6448;48.916;8.990;2022-08-04T04:06:04;1.63;;;1.37;;
12768;SDS011;6448;48.916;8.990;2022-08-04T04:07:37;1.33;;;1.23;;
12768;SDS011;6448;48.916;8.990;2022-08-04T04:09:12;2.10;;;1.50;;
12768;SDS011;6448;48.916;8.990;2022-08-04T04:10:53;1.70;;;1.60;;
12768;SDS011;6448;48.916;8.990;2022-08-04T04:12:31;1.60;;;1.50;;
12768;SDS011;6448;48.916;8.990;2022-08-04T04:14:09;2.17;;;1.40;;
12768;SDS011;6448;48.916;8.990;2022-08-04T04:15:27;1.52;;;1.40;;
12768;SDS011;6448;48.916;8.990;2022-08-04T04:16:48;1.40;;;1.30;;
12768;SDS011;6448;48.916;8.990;2022-08-04T04:18:09;1.40;;;1.30;;
12768;SDS011;6448;48.916;8.990;2022-08-04T04:19:21;1.38;;;1.27;;
12768;SDS011;6448;48.916;8.990;2022-08-04T04:20:55;1.30;;;1.20;;
12768;SDS011;6448;48.916;8.990;2022-08-04T04:25:33;1.30;;;1.20;;
12768;SDS011;6448;48.916;8.990;2022-08-04T04:26:45;1.30;;;1.20;;
12768;SDS011;6448;48.916;8.990;2022-08-04T04:28:03;1.20;;;1.10;;
12768;SDS011;6448;48.916;8.990;2022-08-04T04:29:29;1.30;;;1.20;;
12768;SDS011;6448;48.916;8.990;2022-08-04T04:30:49;1.50;;;1.40;;
12768;SDS011;6448;48.916;8.990;2022-08-04T04:32:04;1.40;;;1.30;;
12768;SDS011;6448;48.916;8.990;2022-08-04T04:33:22;1.40;;;1.30;;
12768;SDS011;6448;48.916;8.990;2022-08-04T04:34:34;1.40;;;1.30;;
12768;SDS011;6448;48.916;8.990;2022-08-04T04:35:46;1.40;;;1.30;;
12768;SDS011;6448;48.916;8.990;2022-08-04T04:37:00;1.40;;;1.30;;
12768;SDS011;6448;48.916;8.990;2022-08-04T04:38:20;1.40;;;1.30;;
12768;SDS011;6448;48.916;8.990;2022-08-04T04:39:36;1.30;;;1.20;;
12768;SDS011;6448;48.916;8.990;2022-08-04T04:40:53;1.30;;;1.20;;
12768;SDS011;6448;48.916;8.990;2022-08-04T04:42:11;1.40;;;1.30;;
12768;SDS011;6448;48.916;8.990;2022-08-04T04:43:29;1.30;;;1.20;;
12768;SDS011;6448;48.916;8.990;2022-08-04T04:44:57;1.45;;;1.35;;
12768;SDS011;6448;48.916;8.990;2022-08-04T04:46:11;1.50;;;1.40;;
12768;SDS011;6448;48.916;8.990;2022-08-04T04:47:17;1.60;;;1.50;;
12768;SDS011;6448;48.916;8.990;2022-08-04T04:48:29;1.75;;;1.65;;
12768;SDS011;6448;48.916;8.990;2022-08-04T04:49:39;1.80;;;1.70;;
12768;SDS011;6448;48.916;8.990;2022-08-04T04:50:52;1.70;;;1.60;;
12768;SDS011;6448;48.916;8.990;2022-08-04T04:52:07;2.08;;;1.90;;
12768;SDS011;6448;48.916;8.990;2022-08-04T04:53:15;1.80;;;1.70;;
12768;SDS011;6448;48.916;8.990;2022-08-04T04:54:25;2.08;;;1.98;;
12768;SDS011;6448;48.916;8.990;2022-08-04T04:55:34;2.22;;;2.08;;
12768;SDS011;6448;48.916;8.990;2022-08-04T04:56:42;2.27;;;2.07;;
12768;SDS011;6448;48.916;8.990;2022-08-04T04:57:49;2.30;;;2.10;;
12768;SDS011;6448;48.916;8.990;2022-08-04T04:58:51;2.10;;;1.90;;
12768;SDS011;6448;48.916;8.990;2022-08-04T04:59:55;2.63;;;2.07;;
12768;SDS011;6448;48.916;8.990;2022-08-04T05:01:14;2.10;;;2.00;;
12768;SDS011;6448;48.916;8.990;2022-08-04T05:02:43;2.10;;;1.90;;
12768;SDS011;6448;48.916;8.990;2022-08-04T05:04:14;2.23;;;2.13;;
12768;SDS011;6448;48.916;8.990;2022-08-04T05:05:49;2.30;;;2.10;;
12768;SDS011;6448;48.916;8.990;2022-08-04T05:07:09;1.92;;;1.80;;
12768;SDS011;6448;48.916;8.990;2022-08-04T05:10:02;2.17;;;1.95;;
12768;SDS011;6448;48.916;8.990;2022-08-04T05:12:50;2.10;;;1.90;;
12768;SDS011;6448;48.916;8.990;2022-08-04T05:14:02;2.10;;;1.90;;
12768;SDS011;6448;48.916;8.990;2022-08-04T05:15:08;1.90;;;1.80;;
12768;SDS011;6448;48.916;8.990;2022-08-04T05:16:14;2.05;;;1.85;;
12768;SDS011;6448;48.916;8.990;2022-08-04T05:17:21;2.70;;;1.70;;
12768;SDS011;6448;48.916;8.990;2022-08-04T05:18:27;2.00;;;1.80;;
12768;SDS011;6448;48.916;8.990;2022-08-04T05:19:33;2.97;;;1.90;;
12768;SDS011;6448;48.916;8.990;2022-08-04T05:20:47;2.15;;;1.85;;
12768;SDS011;6448;48.916;8.990;2022-08-04T05:21:58;1.80;;;1.70;;
12768;SDS011;6448;48.916;8.990;2022-08-04T05:23:07;1.92;;;1.83;;
12768;SDS011;6448;48.916;8.990;2022-08-04T05:24:16;2.10;;;1.90;;
12768;SDS011;6448;48.916;8.990;2022-08-04T05:25:20;2.38;;;1.90;;
12768;SDS011;6448;48.916;8.990;2022-08-04T05:26:28;2.15;;;1.95;;
12768;SDS011;6448;48.916;8.990;2022-08-04T05:27:35;2.25;;;2.05;;
12768;SDS011;6448;48.916;8.990;2022-08-04T05:28:40;2.30;;;2.10;;
12768;SDS011;6448;48.916;8.990;2022-08-04T05:29:45;2.30;;;2.10;;
12768;SDS011;6448;48.916;8.990;2022-08-04T05:30:52;2.10;;;1.98;;
12768;SDS011;6448;48.916;8.990;2022-08-04T05:31:56;2.28;;;2.08;;
12768;SDS011;6448;48.916;8.990;2022-08-04T05:33:02;2.33;;;2.13;;
12768;SDS011;6448;48.916;8.990;2022-08-04T05:34:07;2.00;;;1.90;;
12768;SDS011;6448;48.916;8.990;2022-08-04T05:35:12;1.85;;;1.75;;
12768;SDS011;6448;48.916;8.990;2022-08-04T05:36:17;2.30;;;2.10;;
12768;SDS011;6448;48.916;8.990;2022-08-04T05:37:22;2.22;;;1.80;;
12768;SDS011;6448;48.916;8.990;2022-08-04T05:38:25;2.03;;;1.80;;
12768;SDS011;6448;48.916;8.990;2022-08-04T05:39:28;2.00;;;1.90;;
12768;SDS011;6448;48.916;8.990;2022-08-04T05:40:34;1.95;;;1.70;;
12768;SDS011;6448;48.916;8.990;2022-08-04T05:41:38;2.10;;;2.00;;
12768;SDS011;6448;48.916;8.990;2022-08-04T05:42:41;2.30;;;2.00;;
12768;SDS011;6448;48.916;8.990;2022-08-04T05:43:42;3.05;;;2.10;;
12768;SDS011;6448;48.916;8.990;2022-08-04T05:44:46;2.35;;;1.90;;
12768;SDS011;6448;48.916;8.990;2022-08-04T05:45:47;3.10;;;2.00;;
12768;SDS011;6448;48.916;8.990;2022-08-04T05:46:53;2.03;;;1.83;;
12768;SDS011;6448;48.916;8.990;2022-08-04T05:47:55;2.97;;;1.95;;
12768;SDS011;6448;48.916;8.990;2022-08-04T05:48:57;2.60;;;1.90;;
12768;SDS011;6448;48.916;8.990;2022-08-04T05:49:58;3.20;;;2.00;;
12768;SDS011;6448;48.916;8.990;2022-08-04T05:51:01;3.00;;;1.90;;
12768;SDS011;6448;48.916;8.990;2022-08-04T05:52:03;2.30;;;1.98;;
12768;SDS011;6448;48.916;8.990;2022-08-04T05:53:08;2.00;;;1.90;;
12768;SDS011;6448;48.916;8.990;2022-08-04T05:54:10;2.22;;;1.90;;
12768;SDS011;6448;48.916;8.990;2022-08-04T05:55:13;2.53;;;1.98;;
12768;SDS011;6448;48.916;8.990;2022-08-04T05:56:16;1.80;;;1.70;;
12768;SDS011;6448;48.916;8.990;2022-08-04T05:57:17;1.98;;;1.77;;
12768;SDS011;6448;48.916;8.990;2022-08-04T05:58:20;2.05;;;1.90;;
12768;SDS011;6448;48.916;8.990;2022-08-04T05:59:21;2.17;;;1.98;;
12768;SDS011;6448;48.916;8.990;2022-08-04T06:00:24;2.30;;;2.10;;
12768;SDS011;6448;48.916;8.990;2022-08-04T06:01:27;2.17;;;1.98;;
12768;SDS011;6448;48.916;8.990;2022-08-04T06:02:29;2.00;;;1.90;;
12768;SDS011;6448;48.916;8.990;2022-08-04T06:03:31;2.28;;;1.90;;
12768;SDS011;6448;48.916;8.990;2022-08-04T06:04:36;2.25;;;2.00;;
12768;SDS011;6448;48.916;8.990;2022-08-04T06:05:41;2.30;;;2.10;;
12768;SDS011;6448;48.916;8.990;2022-08-04T06:06:45;2.10;;;1.90;;
12768;SDS011;6448;48.916;8.990;2022-08-04T06:07:51;2.10;;;1.90;;
12768;SDS011;6448;48.916;8.990;2022-08-04T06:08:54;2.63;;;1.90;;
12768;SDS011;6448;48.916;8.990;2022-08-04T06:09:55;1.80;;;1.67;;
12768;SDS011;6448;48.916;8.990;2022-08-04T06:10:58;1.90;;;1.80;;
12768;SDS011;6448;48.916;8.990;2022-08-04T06:12:06;2.97;;;1.70;;
12768;SDS011;6448;48.916;8.990;2022-08-04T06:13:12;2.10;;;1.90;;
12768;SDS011;6448;48.916;8.990;2022-08-04T06:14:19;2.20;;;2.00;;
12768;SDS011;6448;48.916;8.990;2022-08-04T06:15:24;3.08;;;1.88;;
12768;SDS011;6448;48.916;8.990;2022-08-04T06:16:28;3.03;;;1.98;;
12768;SDS011;6448;48.916;8.990;2022-08-04T06:17:37;1.98;;;1.80;;
12768;SDS011;6448;48.916;8.990;2022-08-04T06:18:39;2.97;;;2.05;;
12768;SDS011;6448;48.916;8.990;2022-08-04T06:19:43;2.43;;;2.00;;
12768;SDS011;6448;48.916;8.990;2022-08-04T06:20:46;3.05;;;2.00;;
12768;SDS011;6448;48.916;8.990;2022-08-04T06:21:51;2.63;;;2.10;;
12768;SDS011;6448;48.916;8.990;2022-08-04T06:22:55;2.97;;;1.80;;
12768;SDS011;6448;48.916;8.990;2022-08-04T06:24:01;2.00;;;1.80;;
12768;SDS011;6448;48.916;8.990;2022-08-04T06:25:06;2.45;;;2.10;;
12768;SDS011;6448;48.916;8.990;2022-08-04T06:26:10;2.08;;;1.88;;
12768;SDS011;6448;48.916;8.990;2022-08-04T06:27:18;2.75;;;1.90;;
12768;SDS011;6448;48.916;8.990;2022-08-04T06:28:21;2.47;;;1.90;;
12768;SDS011;6448;48.916;8.990;2022-08-04T06:29:24;2.10;;;1.90;;
12768;SDS011;6448;48.916;8.990;2022-08-04T06:30:31;2.20;;;1.70;;
12768;SDS011;6448;48.916;8.990;2022-08-04T06:31:33;3.42;;;2.00;;
12768;SDS011;6448;48.916;8.990;2022-08-04T06:32:47;2.10;;;1.83;;
12768;SDS011;6448;48.916;8.990;2022-08-04T06:33:54;1.70;;;1.60;;
12768;SDS011;6448;48.916;8.990;2022-08-04T06:34:57;2.70;;;2.10;;
12768;SDS011;6448;48.916;8.990;2022-08-04T06:36:01;1.80;;;1.70;;
12768;SDS011;6448;48.916;8.990;2022-08-04T06:37:05;2.70;;;1.70;;
12768;SDS011;6448;48.916;8.990;2022-08-04T06:38:07;1.80;;;1.70;;
12768;SDS011;6448;48.916;8.990;2022-08-04T06:39:11;2.50;;;1.70;;
12768;SDS011;6448;48.916;8.990;2022-08-04T06:40:13;2.45;;;1.83;;
12768;SDS011;6448;48.916;8.990;2022-08-04T06:41:17;2.00;;;1.80;;
12768;SDS011;6448;48.916;8.990;2022-08-04T06:42:20;2.33;;;1.80;;
12768;SDS011;6448;48.916;8.990;2022-08-04T06:43:25;2.20;;;1.80;;
12768;SDS011;6448;48.916;8.990;2022-08-04T06:44:26;4.22;;;1.85;;
12768;SDS011;6448;48.916;8.990;2022-08-04T06:45:29;1.90;;;1.70;;
12768;SDS011;6448;48.916;8.990;2022-08-04T06:46:33;2.67;;;1.85;;
12768;SDS011;6448;48.916;8.990;2022-08-04T06:47:37;2.15;;;1.75;;
12768;SDS011;6448;48.916;8.990;2022-08-04T06:48:40;2.92;;;2.00;;
12768;SDS011;6448;48.916;8.990;2022-08-04T06:49:42;5.63;;;1.80;;
12768;SDS011;6448;48.916;8.990;2022-08-04T06:50:45;4.20;;;1.95;;
12768;SDS011;6448;48.916;8.990;2022-08-04T06:51:48;2.17;;;1.80;;
12768;SDS011;6448;48.916;8.990;2022-08-04T06:52:51;2.13;;;1.63;;
12768;SDS011;6448;48.916;8.990;2022-08-04T06:53:53;5.37;;;2.00;;
12768;SDS011;6448;48.916;8.990;2022-08-04T06:54:55;4.93;;;1.90;;
12768;SDS011;6448;48.916;8.990;2022-08-04T06:55:57;3.35;;;1.85;;
12768;SDS011;6448;48.916;8.990;2022-08-04T06:57:00;5.05;;;1.95;;
12768;SDS011;6448;48.916;8.990;2022-08-04T06:58:02;4.22;;;1.90;;
12768;SDS011;6448;48.916;8.990;2022-08-04T06:59:06;2.90;;;1.70;;
12768;SDS011;6448;48.916;8.990;2022-08-04T07:00:08;3.00;;;1.90;;
12768;SDS011;6448;48.916;8.990;2022-08-04T07:01:12;2.97;;;2.10;;
12768;SDS011;6448;48.916;8.990;2022-08-04T07:02:17;2.40;;;1.80;;
12768;SDS011;6448;48.916;8.990;2022-08-04T07:03:23;3.08;;;1.77;;
12768;SDS011;6448;48.916;8.990;2022-08-04T07:04:25;2.30;;;1.80;;
12768;SDS011;6448;48.916;8.990;2022-08-04T07:05:25;3.20;;;1.80;;
12768;SDS011;6448;48.916;8.990;2022-08-04T07:06:28;2.10;;;1.90;;
12768;SDS011;6448;48.916;8.990;2022-08-04T07:07:29;2.78;;;1.80;;
12768;SDS011;6448;48.916;8.990;2022-08-04T07:08:30;2.42;;;1.75;;
12768;SDS011;6448;48.916;8.990;2022-08-04T07:09:31;2.97;;;1.70;;
12768;SDS011;6448;48.916;8.990;2022-08-04T07:10:35;4.30;;;2.00;;
12768;SDS011;6448;48.916;8.990;2022-08-04T07:11:37;3.08;;;1.85;;
12768;SDS011;6448;48.916;8.990;2022-08-04T07:12:40;2.50;;;1.87;;
12768;SDS011;6448;48.916;8.990;2022-08-04T07:13:41;3.50;;;1.80;;
12768;SDS011;6448;48.916;8.990;2022-08-04T07:14:45;3.92;;;2.00;;
12768;SDS011;6448;48.916;8.990;2022-08-04T07:15:47;3.17;;;1.80;;
12768;SDS011;6448;48.916;8.990;2022-08-04T07:16:49;3.00;;;2.10;;
12768;SDS011;6448;48.916;8.990;2022-08-04T07:17:52;3.50;;;1.55;;
12768;SDS011;6448;48.916;8.990;2022-08-04T07:18:56;3.17;;;1.90;;
12768;SDS011;6448;48.916;8.990;2022-08-04T07:19:57;1.88;;;1.77;;
12768;SDS011;6448;48.916;8.990;2022-08-04T07:20:58;2.08;;;1.70;;
12768;SDS011;6448;48.916;8.990;2022-08-04T07:22:01;2.90;;;1.85;;
12768;SDS011;6448;48.916;8.990;2022-08-04T07:23:02;3.40;;;1.90;;
12768;SDS011;6448;48.916;8.990;2022-08-04T07:24:05;2.05;;;1.70;;
12768;SDS011;6448;48.916;8.990;2022-08-04T07:25:07;3.40;;;1.65;;
12768;SDS011;6448;48.916;8.990;2022-08-04T07:26:10;2.63;;;1.60;;
12768;SDS011;6448;48.916;8.990;2022-08-04T07:27:14;1.88;;;1.70;;
12768;SDS011;6448;48.916;8.990;2022-08-04T07:28:17;2.05;;;1.60;;